<?xml version="1.0" encoding="UTF-8" standalone="no" ?>
<gpx xmlns="http://www.topografix.com/GPX/1/1" xmlns:xsi="http://www.w3.org/2001/XMLSchema-instance" xsi:schemaLocation="http://www.topografix.com/GPX/1/1 http://www.topografix.com/GPX/1/1/gpx.xsd" version="1.1" creator="VisuGPX - https://www.visugpx.com">
  <metadata>
    <name>Panoramas du pré-bocage à Bonnemaison</name>
  </metadata>
  <wpt lat="49.01025" lon="-0.58493">
    <ele>218</ele>
    <name><![CDATA[Parking de la mairie de Bonnemaison]]></name>
  </wpt>
  <wpt lat="49.0093" lon="-0.58262">
    <ele>224</ele>
    <name><![CDATA[Calvaire de Bonnemaison, croisement de la boucle]]></name>
  </wpt>
  <wpt lat="48.99962" lon="-0.57373">
    <ele>240</ele>
    <name><![CDATA[Entrée du hameau du Haut-Bosq]]></name>
  </wpt>
  <wpt lat="48.99838" lon="-0.57392">
    <ele>231</ele>
    <name><![CDATA[Le Haut-Bosq - Nord]]></name>
  </wpt>
  <wpt lat="48.99797" lon="-0.574">
    <ele>230</ele>
    <name><![CDATA[Le Haut-Bosq - Sud]]></name>
  </wpt>
  <wpt lat="48.9929" lon="-0.58251">
    <ele>180</ele>
    <name><![CDATA[ Croisement à quatre directions]]></name>
  </wpt>
  <wpt lat="48.99547" lon="-0.60018">
    <ele>208</ele>
    <name><![CDATA[Route D234B - Le Jardin de la Bruyère]]></name>
  </wpt>
  <wpt lat="48.99973" lon="-0.58254">
    <ele>238</ele>
    <name><![CDATA[La Rouelle]]></name>
  </wpt>
  <wpt lat="49.01025" lon="-0.58493">
    <ele>218</ele>
    <name><![CDATA[Parking de la mairie de Bonnemaison]]></name>
  </wpt>
  <trk>
    <name><![CDATA[Panoramas du pré-bocage à Bonnemaison]]></name>
    <trkseg>
      <trkpt lat="49.01025" lon="-0.58493">
        <ele>218</ele>
        <time>2021-05-28T11:41:18+02:00</time>
      </trkpt>
      <trkpt lat="49.01014" lon="-0.58465">
        <ele>219</ele>
        <time>2021-05-28T11:41:23+02:00</time>
      </trkpt>
      <trkpt lat="49.01031" lon="-0.58454">
        <ele>218</ele>
        <time>2021-05-28T11:41:28+02:00</time>
      </trkpt>
      <trkpt lat="49.01053" lon="-0.58429">
        <ele>217</ele>
        <time>2021-05-28T11:41:33+02:00</time>
      </trkpt>
      <trkpt lat="49.01086" lon="-0.58385">
        <ele>216</ele>
        <time>2021-05-28T11:41:38+02:00</time>
      </trkpt>
      <trkpt lat="49.0105" lon="-0.58356">
        <ele>218</ele>
        <time>2021-05-28T11:41:43+02:00</time>
      </trkpt>
      <trkpt lat="49.01013" lon="-0.58326">
        <ele>221</ele>
        <time>2021-05-28T11:41:48+02:00</time>
      </trkpt>
      <trkpt lat="49.00967" lon="-0.5829">
        <ele>223</ele>
        <time>2021-05-28T11:41:53+02:00</time>
      </trkpt>
      <trkpt lat="49.00939" lon="-0.5827">
        <ele>224</ele>
        <time>2021-05-28T11:41:58+02:00</time>
      </trkpt>
      <trkpt lat="49.0093" lon="-0.58262">
        <ele>224</ele>
        <time>2021-05-28T11:42:03+02:00</time>
      </trkpt>
      <trkpt lat="49.00922" lon="-0.58254">
        <ele>225</ele>
        <time>2021-05-28T11:42:08+02:00</time>
      </trkpt>
      <trkpt lat="49.00873" lon="-0.58212">
        <ele>226</ele>
        <time>2021-05-28T11:42:13+02:00</time>
      </trkpt>
      <trkpt lat="49.0082" lon="-0.58146">
        <ele>227</ele>
        <time>2021-05-28T11:42:18+02:00</time>
      </trkpt>
      <trkpt lat="49.00784" lon="-0.58094">
        <ele>226</ele>
        <time>2021-05-28T11:42:23+02:00</time>
      </trkpt>
      <trkpt lat="49.0075" lon="-0.58028">
        <ele>225</ele>
        <time>2021-05-28T11:42:28+02:00</time>
      </trkpt>
      <trkpt lat="49.00729" lon="-0.57972">
        <ele>225</ele>
        <time>2021-05-28T11:42:33+02:00</time>
      </trkpt>
      <trkpt lat="49.00707" lon="-0.57902">
        <ele>224</ele>
        <time>2021-05-28T11:42:38+02:00</time>
      </trkpt>
      <trkpt lat="49.00683" lon="-0.57822">
        <ele>223</ele>
        <time>2021-05-28T11:42:43+02:00</time>
      </trkpt>
      <trkpt lat="49.0067" lon="-0.5776">
        <ele>223</ele>
        <time>2021-05-28T11:42:48+02:00</time>
      </trkpt>
      <trkpt lat="49.00665" lon="-0.57702">
        <ele>224</ele>
        <time>2021-05-28T11:42:53+02:00</time>
      </trkpt>
      <trkpt lat="49.00658" lon="-0.57653">
        <ele>225</ele>
        <time>2021-05-28T11:42:58+02:00</time>
      </trkpt>
      <trkpt lat="49.00643" lon="-0.57613">
        <ele>227</ele>
        <time>2021-05-28T11:43:03+02:00</time>
      </trkpt>
      <trkpt lat="49.00615" lon="-0.57568">
        <ele>229</ele>
        <time>2021-05-28T11:43:08+02:00</time>
      </trkpt>
      <trkpt lat="49.00577" lon="-0.57531">
        <ele>232</ele>
        <time>2021-05-28T11:43:13+02:00</time>
      </trkpt>
      <trkpt lat="49.00541" lon="-0.57503">
        <ele>232</ele>
        <time>2021-05-28T11:43:18+02:00</time>
      </trkpt>
      <trkpt lat="49.00506" lon="-0.5748">
        <ele>233</ele>
        <time>2021-05-28T11:43:23+02:00</time>
      </trkpt>
      <trkpt lat="49.00457" lon="-0.57444">
        <ele>233</ele>
        <time>2021-05-28T11:43:28+02:00</time>
      </trkpt>
      <trkpt lat="49.00414" lon="-0.57415">
        <ele>233</ele>
        <time>2021-05-28T11:43:33+02:00</time>
      </trkpt>
      <trkpt lat="49.00374" lon="-0.57397">
        <ele>231</ele>
        <time>2021-05-28T11:43:38+02:00</time>
      </trkpt>
      <trkpt lat="49.00336" lon="-0.57377">
        <ele>230</ele>
        <time>2021-05-28T11:43:43+02:00</time>
      </trkpt>
      <trkpt lat="49.00298" lon="-0.57353">
        <ele>229</ele>
        <time>2021-05-28T11:43:48+02:00</time>
      </trkpt>
      <trkpt lat="49.00275" lon="-0.57332">
        <ele>229</ele>
        <time>2021-05-28T11:43:53+02:00</time>
      </trkpt>
      <trkpt lat="49.00246" lon="-0.57343">
        <ele>230</ele>
        <time>2021-05-28T11:43:58+02:00</time>
      </trkpt>
      <trkpt lat="49.00193" lon="-0.57372">
        <ele>235</ele>
        <time>2021-05-28T11:44:03+02:00</time>
      </trkpt>
      <trkpt lat="49.0015" lon="-0.57392">
        <ele>238</ele>
        <time>2021-05-28T11:44:08+02:00</time>
      </trkpt>
      <trkpt lat="49.00127" lon="-0.574">
        <ele>239</ele>
        <time>2021-05-28T11:44:13+02:00</time>
      </trkpt>
      <trkpt lat="49.00089" lon="-0.57405">
        <ele>241</ele>
        <time>2021-05-28T11:44:18+02:00</time>
      </trkpt>
      <trkpt lat="49.0005" lon="-0.57408">
        <ele>242</ele>
        <time>2021-05-28T11:44:23+02:00</time>
      </trkpt>
      <trkpt lat="49.00005" lon="-0.57387">
        <ele>243</ele>
        <time>2021-05-28T11:44:28+02:00</time>
      </trkpt>
      <trkpt lat="48.99962" lon="-0.57373">
        <ele>240</ele>
        <time>2021-05-28T11:44:33+02:00</time>
      </trkpt>
      <trkpt lat="48.99945" lon="-0.57372">
        <ele>239</ele>
        <time>2021-05-28T11:44:38+02:00</time>
      </trkpt>
      <trkpt lat="48.99904" lon="-0.57379">
        <ele>236</ele>
        <time>2021-05-28T11:44:43+02:00</time>
      </trkpt>
      <trkpt lat="48.99838" lon="-0.57392">
        <ele>231</ele>
        <time>2021-05-28T11:44:48+02:00</time>
      </trkpt>
      <trkpt lat="48.9988" lon="-0.57313">
        <ele>230</ele>
        <time>2021-05-28T11:44:53+02:00</time>
      </trkpt>
      <trkpt lat="48.99908" lon="-0.57269">
        <ele>231</ele>
        <time>2021-05-28T11:44:58+02:00</time>
      </trkpt>
      <trkpt lat="48.99929" lon="-0.57243">
        <ele>231</ele>
        <time>2021-05-28T11:45:03+02:00</time>
      </trkpt>
      <trkpt lat="48.99945" lon="-0.5723">
        <ele>232</ele>
        <time>2021-05-28T11:45:08+02:00</time>
      </trkpt>
      <trkpt lat="48.99945" lon="-0.57217">
        <ele>232</ele>
        <time>2021-05-28T11:45:13+02:00</time>
      </trkpt>
      <trkpt lat="48.99946" lon="-0.57173">
        <ele>230</ele>
        <time>2021-05-28T11:45:18+02:00</time>
      </trkpt>
      <trkpt lat="48.99941" lon="-0.57112">
        <ele>227</ele>
        <time>2021-05-28T11:45:23+02:00</time>
      </trkpt>
      <trkpt lat="48.99958" lon="-0.5704">
        <ele>223</ele>
        <time>2021-05-28T11:45:28+02:00</time>
      </trkpt>
      <trkpt lat="48.99966" lon="-0.57019">
        <ele>222</ele>
        <time>2021-05-28T11:45:33+02:00</time>
      </trkpt>
      <trkpt lat="49.00021" lon="-0.56987">
        <ele>220</ele>
        <time>2021-05-28T11:45:38+02:00</time>
      </trkpt>
      <trkpt lat="48.99994" lon="-0.56941">
        <ele>215</ele>
        <time>2021-05-28T11:45:43+02:00</time>
      </trkpt>
      <trkpt lat="48.99968" lon="-0.56891">
        <ele>212</ele>
        <time>2021-05-28T11:45:48+02:00</time>
      </trkpt>
      <trkpt lat="48.99946" lon="-0.56851">
        <ele>209</ele>
        <time>2021-05-28T11:45:53+02:00</time>
      </trkpt>
      <trkpt lat="48.99924" lon="-0.56797">
        <ele>205</ele>
        <time>2021-05-28T11:45:58+02:00</time>
      </trkpt>
      <trkpt lat="48.99912" lon="-0.5674">
        <ele>201</ele>
        <time>2021-05-28T11:46:03+02:00</time>
      </trkpt>
      <trkpt lat="48.99895" lon="-0.56682">
        <ele>197</ele>
        <time>2021-05-28T11:46:08+02:00</time>
      </trkpt>
      <trkpt lat="48.99866" lon="-0.56646">
        <ele>194</ele>
        <time>2021-05-28T11:46:13+02:00</time>
      </trkpt>
      <trkpt lat="48.99831" lon="-0.56607">
        <ele>192</ele>
        <time>2021-05-28T11:46:18+02:00</time>
      </trkpt>
      <trkpt lat="48.99802" lon="-0.56574">
        <ele>189</ele>
        <time>2021-05-28T11:46:23+02:00</time>
      </trkpt>
      <trkpt lat="48.99771" lon="-0.56532">
        <ele>187</ele>
        <time>2021-05-28T11:46:28+02:00</time>
      </trkpt>
      <trkpt lat="48.99748" lon="-0.56604">
        <ele>188</ele>
        <time>2021-05-28T11:46:33+02:00</time>
      </trkpt>
      <trkpt lat="48.99747" lon="-0.56636">
        <ele>189</ele>
        <time>2021-05-28T11:46:38+02:00</time>
      </trkpt>
      <trkpt lat="48.99754" lon="-0.56724">
        <ele>191</ele>
        <time>2021-05-28T11:46:43+02:00</time>
      </trkpt>
      <trkpt lat="48.99768" lon="-0.5678">
        <ele>193</ele>
        <time>2021-05-28T11:46:48+02:00</time>
      </trkpt>
      <trkpt lat="48.99776" lon="-0.56834">
        <ele>194</ele>
        <time>2021-05-28T11:46:53+02:00</time>
      </trkpt>
      <trkpt lat="48.99781" lon="-0.56884">
        <ele>195</ele>
        <time>2021-05-28T11:46:58+02:00</time>
      </trkpt>
      <trkpt lat="48.99797" lon="-0.56924">
        <ele>198</ele>
        <time>2021-05-28T11:47:03+02:00</time>
      </trkpt>
      <trkpt lat="48.99814" lon="-0.56976">
        <ele>204</ele>
        <time>2021-05-28T11:47:08+02:00</time>
      </trkpt>
      <trkpt lat="48.99821" lon="-0.57007">
        <ele>206</ele>
        <time>2021-05-28T11:47:13+02:00</time>
      </trkpt>
      <trkpt lat="48.99827" lon="-0.57051">
        <ele>209</ele>
        <time>2021-05-28T11:47:18+02:00</time>
      </trkpt>
      <trkpt lat="48.99835" lon="-0.57091">
        <ele>211</ele>
        <time>2021-05-28T11:47:23+02:00</time>
      </trkpt>
      <trkpt lat="48.99846" lon="-0.57139">
        <ele>214</ele>
        <time>2021-05-28T11:47:28+02:00</time>
      </trkpt>
      <trkpt lat="48.99857" lon="-0.57192">
        <ele>219</ele>
        <time>2021-05-28T11:47:33+02:00</time>
      </trkpt>
      <trkpt lat="48.99856" lon="-0.5724">
        <ele>221</ele>
        <time>2021-05-28T11:47:38+02:00</time>
      </trkpt>
      <trkpt lat="48.99853" lon="-0.57266">
        <ele>222</ele>
        <time>2021-05-28T11:47:43+02:00</time>
      </trkpt>
      <trkpt lat="48.99839" lon="-0.57291">
        <ele>223</ele>
        <time>2021-05-28T11:47:48+02:00</time>
      </trkpt>
      <trkpt lat="48.99826" lon="-0.5731">
        <ele>224</ele>
        <time>2021-05-28T11:47:53+02:00</time>
      </trkpt>
      <trkpt lat="48.99802" lon="-0.57342">
        <ele>226</ele>
        <time>2021-05-28T11:47:58+02:00</time>
      </trkpt>
      <trkpt lat="48.99796" lon="-0.57354">
        <ele>226</ele>
        <time>2021-05-28T11:48:03+02:00</time>
      </trkpt>
      <trkpt lat="48.99795" lon="-0.57378">
        <ele>228</ele>
        <time>2021-05-28T11:48:08+02:00</time>
      </trkpt>
      <trkpt lat="48.99797" lon="-0.574">
        <ele>230</ele>
        <time>2021-05-28T11:48:13+02:00</time>
      </trkpt>
      <trkpt lat="48.99772" lon="-0.57401">
        <ele>228</ele>
        <time>2021-05-28T11:48:18+02:00</time>
      </trkpt>
      <trkpt lat="48.99736" lon="-0.57397">
        <ele>226</ele>
        <time>2021-05-28T11:48:23+02:00</time>
      </trkpt>
      <trkpt lat="48.99705" lon="-0.57395">
        <ele>224</ele>
        <time>2021-05-28T11:48:28+02:00</time>
      </trkpt>
      <trkpt lat="48.99679" lon="-0.57398">
        <ele>223</ele>
        <time>2021-05-28T11:48:33+02:00</time>
      </trkpt>
      <trkpt lat="48.99648" lon="-0.57409">
        <ele>222</ele>
        <time>2021-05-28T11:48:38+02:00</time>
      </trkpt>
      <trkpt lat="48.99619" lon="-0.57424">
        <ele>221</ele>
        <time>2021-05-28T11:48:43+02:00</time>
      </trkpt>
      <trkpt lat="48.99582" lon="-0.57452">
        <ele>219</ele>
        <time>2021-05-28T11:48:48+02:00</time>
      </trkpt>
      <trkpt lat="48.99544" lon="-0.57486">
        <ele>215</ele>
        <time>2021-05-28T11:48:53+02:00</time>
      </trkpt>
      <trkpt lat="48.9951" lon="-0.5752">
        <ele>211</ele>
        <time>2021-05-28T11:48:58+02:00</time>
      </trkpt>
      <trkpt lat="48.99487" lon="-0.57542">
        <ele>207</ele>
        <time>2021-05-28T11:49:03+02:00</time>
      </trkpt>
      <trkpt lat="48.99463" lon="-0.57582">
        <ele>203</ele>
        <time>2021-05-28T11:49:08+02:00</time>
      </trkpt>
      <trkpt lat="48.99463" lon="-0.57609">
        <ele>206</ele>
        <time>2021-05-28T11:49:13+02:00</time>
      </trkpt>
      <trkpt lat="48.99453" lon="-0.57638">
        <ele>207</ele>
        <time>2021-05-28T11:49:18+02:00</time>
      </trkpt>
      <trkpt lat="48.99439" lon="-0.57671">
        <ele>209</ele>
        <time>2021-05-28T11:49:23+02:00</time>
      </trkpt>
      <trkpt lat="48.99432" lon="-0.57703">
        <ele>210</ele>
        <time>2021-05-28T11:49:28+02:00</time>
      </trkpt>
      <trkpt lat="48.99432" lon="-0.57734">
        <ele>212</ele>
        <time>2021-05-28T11:49:33+02:00</time>
      </trkpt>
      <trkpt lat="48.99436" lon="-0.57761">
        <ele>215</ele>
        <time>2021-05-28T11:49:38+02:00</time>
      </trkpt>
      <trkpt lat="48.99422" lon="-0.57785">
        <ele>215</ele>
        <time>2021-05-28T11:49:43+02:00</time>
      </trkpt>
      <trkpt lat="48.99401" lon="-0.57806">
        <ele>212</ele>
        <time>2021-05-28T11:49:48+02:00</time>
      </trkpt>
      <trkpt lat="48.99373" lon="-0.57831">
        <ele>207</ele>
        <time>2021-05-28T11:49:53+02:00</time>
      </trkpt>
      <trkpt lat="48.99352" lon="-0.57855">
        <ele>202</ele>
        <time>2021-05-28T11:49:58+02:00</time>
      </trkpt>
      <trkpt lat="48.99338" lon="-0.57884">
        <ele>199</ele>
        <time>2021-05-28T11:50:03+02:00</time>
      </trkpt>
      <trkpt lat="48.99332" lon="-0.5791">
        <ele>198</ele>
        <time>2021-05-28T11:50:08+02:00</time>
      </trkpt>
      <trkpt lat="48.99328" lon="-0.57957">
        <ele>198</ele>
        <time>2021-05-28T11:50:13+02:00</time>
      </trkpt>
      <trkpt lat="48.99327" lon="-0.58006">
        <ele>198</ele>
        <time>2021-05-28T11:50:18+02:00</time>
      </trkpt>
      <trkpt lat="48.99325" lon="-0.58061">
        <ele>198</ele>
        <time>2021-05-28T11:50:23+02:00</time>
      </trkpt>
      <trkpt lat="48.99326" lon="-0.58111">
        <ele>197</ele>
        <time>2021-05-28T11:50:28+02:00</time>
      </trkpt>
      <trkpt lat="48.99324" lon="-0.58158">
        <ele>194</ele>
        <time>2021-05-28T11:50:33+02:00</time>
      </trkpt>
      <trkpt lat="48.99316" lon="-0.58205">
        <ele>190</ele>
        <time>2021-05-28T11:50:38+02:00</time>
      </trkpt>
      <trkpt lat="48.9929" lon="-0.58251">
        <ele>180</ele>
        <time>2021-05-28T11:50:43+02:00</time>
      </trkpt>
      <trkpt lat="48.99302" lon="-0.5828">
        <ele>183</ele>
        <time>2021-05-28T11:50:48+02:00</time>
      </trkpt>
      <trkpt lat="48.99307" lon="-0.58345">
        <ele>183</ele>
        <time>2021-05-28T11:50:53+02:00</time>
      </trkpt>
      <trkpt lat="48.993" lon="-0.58408">
        <ele>181</ele>
        <time>2021-05-28T11:50:58+02:00</time>
      </trkpt>
      <trkpt lat="48.99295" lon="-0.58473">
        <ele>182</ele>
        <time>2021-05-28T11:51:03+02:00</time>
      </trkpt>
      <trkpt lat="48.99293" lon="-0.58548">
        <ele>185</ele>
        <time>2021-05-28T11:51:08+02:00</time>
      </trkpt>
      <trkpt lat="48.99287" lon="-0.58615">
        <ele>184</ele>
        <time>2021-05-28T11:51:13+02:00</time>
      </trkpt>
      <trkpt lat="48.99287" lon="-0.58671">
        <ele>183</ele>
        <time>2021-05-28T11:51:18+02:00</time>
      </trkpt>
      <trkpt lat="48.99288" lon="-0.58743">
        <ele>182</ele>
        <time>2021-05-28T11:51:23+02:00</time>
      </trkpt>
      <trkpt lat="48.99293" lon="-0.58807">
        <ele>182</ele>
        <time>2021-05-28T11:51:28+02:00</time>
      </trkpt>
      <trkpt lat="48.99301" lon="-0.58866">
        <ele>183</ele>
        <time>2021-05-28T11:51:33+02:00</time>
      </trkpt>
      <trkpt lat="48.99307" lon="-0.58925">
        <ele>185</ele>
        <time>2021-05-28T11:51:38+02:00</time>
      </trkpt>
      <trkpt lat="48.99315" lon="-0.58983">
        <ele>184</ele>
        <time>2021-05-28T11:51:43+02:00</time>
      </trkpt>
      <trkpt lat="48.99325" lon="-0.59045">
        <ele>185</ele>
        <time>2021-05-28T11:51:48+02:00</time>
      </trkpt>
      <trkpt lat="48.99328" lon="-0.59112">
        <ele>186</ele>
        <time>2021-05-28T11:51:53+02:00</time>
      </trkpt>
      <trkpt lat="48.99332" lon="-0.59183">
        <ele>187</ele>
        <time>2021-05-28T11:51:58+02:00</time>
      </trkpt>
      <trkpt lat="48.99337" lon="-0.59248">
        <ele>189</ele>
        <time>2021-05-28T11:52:03+02:00</time>
      </trkpt>
      <trkpt lat="48.99345" lon="-0.59322">
        <ele>189</ele>
        <time>2021-05-28T11:52:08+02:00</time>
      </trkpt>
      <trkpt lat="48.99355" lon="-0.59381">
        <ele>192</ele>
        <time>2021-05-28T11:52:13+02:00</time>
      </trkpt>
      <trkpt lat="48.99368" lon="-0.59448">
        <ele>196</ele>
        <time>2021-05-28T11:52:18+02:00</time>
      </trkpt>
      <trkpt lat="48.99386" lon="-0.59513">
        <ele>201</ele>
        <time>2021-05-28T11:52:23+02:00</time>
      </trkpt>
      <trkpt lat="48.99395" lon="-0.59581">
        <ele>204</ele>
        <time>2021-05-28T11:52:28+02:00</time>
      </trkpt>
      <trkpt lat="48.99407" lon="-0.59645">
        <ele>207</ele>
        <time>2021-05-28T11:52:33+02:00</time>
      </trkpt>
      <trkpt lat="48.99418" lon="-0.59715">
        <ele>207</ele>
        <time>2021-05-28T11:52:38+02:00</time>
      </trkpt>
      <trkpt lat="48.99432" lon="-0.59775">
        <ele>207</ele>
        <time>2021-05-28T11:52:43+02:00</time>
      </trkpt>
      <trkpt lat="48.99452" lon="-0.5983">
        <ele>209</ele>
        <time>2021-05-28T11:52:48+02:00</time>
      </trkpt>
      <trkpt lat="48.99474" lon="-0.59893">
        <ele>209</ele>
        <time>2021-05-28T11:52:53+02:00</time>
      </trkpt>
      <trkpt lat="48.9948" lon="-0.59917">
        <ele>208</ele>
        <time>2021-05-28T11:52:58+02:00</time>
      </trkpt>
      <trkpt lat="48.9947" lon="-0.59934">
        <ele>207</ele>
        <time>2021-05-28T11:53:03+02:00</time>
      </trkpt>
      <trkpt lat="48.99491" lon="-0.59957">
        <ele>209</ele>
        <time>2021-05-28T11:53:08+02:00</time>
      </trkpt>
      <trkpt lat="48.99518" lon="-0.59987">
        <ele>209</ele>
        <time>2021-05-28T11:53:13+02:00</time>
      </trkpt>
      <trkpt lat="48.99533" lon="-0.60003">
        <ele>209</ele>
        <time>2021-05-28T11:53:18+02:00</time>
      </trkpt>
      <trkpt lat="48.99547" lon="-0.60018">
        <ele>208</ele>
        <time>2021-05-28T11:53:23+02:00</time>
      </trkpt>
      <trkpt lat="48.99578" lon="-0.5999">
        <ele>210</ele>
        <time>2021-05-28T11:53:28+02:00</time>
      </trkpt>
      <trkpt lat="48.99598" lon="-0.59966">
        <ele>212</ele>
        <time>2021-05-28T11:53:33+02:00</time>
      </trkpt>
      <trkpt lat="48.99618" lon="-0.59934">
        <ele>214</ele>
        <time>2021-05-28T11:53:38+02:00</time>
      </trkpt>
      <trkpt lat="48.99635" lon="-0.59909">
        <ele>216</ele>
        <time>2021-05-28T11:53:43+02:00</time>
      </trkpt>
      <trkpt lat="48.99655" lon="-0.59885">
        <ele>218</ele>
        <time>2021-05-28T11:53:48+02:00</time>
      </trkpt>
      <trkpt lat="48.99682" lon="-0.59876">
        <ele>219</ele>
        <time>2021-05-28T11:53:53+02:00</time>
      </trkpt>
      <trkpt lat="48.99702" lon="-0.59879">
        <ele>219</ele>
        <time>2021-05-28T11:53:58+02:00</time>
      </trkpt>
      <trkpt lat="48.99729" lon="-0.59903">
        <ele>218</ele>
        <time>2021-05-28T11:54:03+02:00</time>
      </trkpt>
      <trkpt lat="48.9975" lon="-0.59926">
        <ele>218</ele>
        <time>2021-05-28T11:54:08+02:00</time>
      </trkpt>
      <trkpt lat="48.99773" lon="-0.59952">
        <ele>219</ele>
        <time>2021-05-28T11:54:13+02:00</time>
      </trkpt>
      <trkpt lat="48.99793" lon="-0.59978">
        <ele>219</ele>
        <time>2021-05-28T11:54:18+02:00</time>
      </trkpt>
      <trkpt lat="48.99819" lon="-0.59997">
        <ele>219</ele>
        <time>2021-05-28T11:54:23+02:00</time>
      </trkpt>
      <trkpt lat="48.9984" lon="-0.60001">
        <ele>220</ele>
        <time>2021-05-28T11:54:28+02:00</time>
      </trkpt>
      <trkpt lat="48.99862" lon="-0.59994">
        <ele>220</ele>
        <time>2021-05-28T11:54:33+02:00</time>
      </trkpt>
      <trkpt lat="48.99879" lon="-0.59976">
        <ele>222</ele>
        <time>2021-05-28T11:54:38+02:00</time>
      </trkpt>
      <trkpt lat="48.99894" lon="-0.59946">
        <ele>224</ele>
        <time>2021-05-28T11:54:43+02:00</time>
      </trkpt>
      <trkpt lat="48.999" lon="-0.59912">
        <ele>226</ele>
        <time>2021-05-28T11:54:48+02:00</time>
      </trkpt>
      <trkpt lat="48.99897" lon="-0.59863">
        <ele>228</ele>
        <time>2021-05-28T11:54:53+02:00</time>
      </trkpt>
      <trkpt lat="48.99891" lon="-0.59802">
        <ele>230</ele>
        <time>2021-05-28T11:54:58+02:00</time>
      </trkpt>
      <trkpt lat="48.99882" lon="-0.59722">
        <ele>232</ele>
        <time>2021-05-28T11:55:03+02:00</time>
      </trkpt>
      <trkpt lat="48.9988" lon="-0.59666">
        <ele>235</ele>
        <time>2021-05-28T11:55:08+02:00</time>
      </trkpt>
      <trkpt lat="48.99876" lon="-0.5961">
        <ele>237</ele>
        <time>2021-05-28T11:55:13+02:00</time>
      </trkpt>
      <trkpt lat="48.99886" lon="-0.59564">
        <ele>238</ele>
        <time>2021-05-28T11:55:18+02:00</time>
      </trkpt>
      <trkpt lat="48.99892" lon="-0.59506">
        <ele>239</ele>
        <time>2021-05-28T11:55:23+02:00</time>
      </trkpt>
      <trkpt lat="48.999" lon="-0.59434">
        <ele>240</ele>
        <time>2021-05-28T11:55:28+02:00</time>
      </trkpt>
      <trkpt lat="48.99906" lon="-0.59354">
        <ele>241</ele>
        <time>2021-05-28T11:55:33+02:00</time>
      </trkpt>
      <trkpt lat="48.9991" lon="-0.5926">
        <ele>241</ele>
        <time>2021-05-28T11:55:38+02:00</time>
      </trkpt>
      <trkpt lat="48.99912" lon="-0.59185">
        <ele>244</ele>
        <time>2021-05-28T11:55:43+02:00</time>
      </trkpt>
      <trkpt lat="48.99914" lon="-0.59116">
        <ele>243</ele>
        <time>2021-05-28T11:55:48+02:00</time>
      </trkpt>
      <trkpt lat="48.99917" lon="-0.59051">
        <ele>242</ele>
        <time>2021-05-28T11:55:53+02:00</time>
      </trkpt>
      <trkpt lat="48.99919" lon="-0.58992">
        <ele>241</ele>
        <time>2021-05-28T11:55:58+02:00</time>
      </trkpt>
      <trkpt lat="48.99921" lon="-0.58907">
        <ele>243</ele>
        <time>2021-05-28T11:56:03+02:00</time>
      </trkpt>
      <trkpt lat="48.99924" lon="-0.58845">
        <ele>241</ele>
        <time>2021-05-28T11:56:08+02:00</time>
      </trkpt>
      <trkpt lat="48.99924" lon="-0.58771">
        <ele>240</ele>
        <time>2021-05-28T11:56:13+02:00</time>
      </trkpt>
      <trkpt lat="48.99916" lon="-0.58704">
        <ele>240</ele>
        <time>2021-05-28T11:56:18+02:00</time>
      </trkpt>
      <trkpt lat="48.99908" lon="-0.5864">
        <ele>239</ele>
        <time>2021-05-28T11:56:23+02:00</time>
      </trkpt>
      <trkpt lat="48.99911" lon="-0.58556">
        <ele>239</ele>
        <time>2021-05-28T11:56:28+02:00</time>
      </trkpt>
      <trkpt lat="48.99912" lon="-0.58474">
        <ele>239</ele>
        <time>2021-05-28T11:56:33+02:00</time>
      </trkpt>
      <trkpt lat="48.99913" lon="-0.58426">
        <ele>239</ele>
        <time>2021-05-28T11:56:38+02:00</time>
      </trkpt>
      <trkpt lat="48.99927" lon="-0.58361">
        <ele>239</ele>
        <time>2021-05-28T11:56:43+02:00</time>
      </trkpt>
      <trkpt lat="48.99934" lon="-0.58327">
        <ele>239</ele>
        <time>2021-05-28T11:56:48+02:00</time>
      </trkpt>
      <trkpt lat="48.99949" lon="-0.58297">
        <ele>239</ele>
        <time>2021-05-28T11:56:53+02:00</time>
      </trkpt>
      <trkpt lat="48.99962" lon="-0.58271">
        <ele>238</ele>
        <time>2021-05-28T11:56:58+02:00</time>
      </trkpt>
      <trkpt lat="48.99973" lon="-0.58254">
        <ele>238</ele>
        <time>2021-05-28T11:57:03+02:00</time>
      </trkpt>
      <trkpt lat="48.99992" lon="-0.58282">
        <ele>236</ele>
        <time>2021-05-28T11:57:08+02:00</time>
      </trkpt>
      <trkpt lat="49.00009" lon="-0.583">
        <ele>236</ele>
        <time>2021-05-28T11:57:13+02:00</time>
      </trkpt>
      <trkpt lat="49.00037" lon="-0.58313">
        <ele>235</ele>
        <time>2021-05-28T11:57:18+02:00</time>
      </trkpt>
      <trkpt lat="49.00062" lon="-0.58327">
        <ele>234</ele>
        <time>2021-05-28T11:57:23+02:00</time>
      </trkpt>
      <trkpt lat="49.00085" lon="-0.58338">
        <ele>233</ele>
        <time>2021-05-28T11:57:28+02:00</time>
      </trkpt>
      <trkpt lat="49.00117" lon="-0.58343">
        <ele>232</ele>
        <time>2021-05-28T11:57:33+02:00</time>
      </trkpt>
      <trkpt lat="49.00138" lon="-0.58334">
        <ele>232</ele>
        <time>2021-05-28T11:57:38+02:00</time>
      </trkpt>
      <trkpt lat="49.00154" lon="-0.58303">
        <ele>232</ele>
        <time>2021-05-28T11:57:43+02:00</time>
      </trkpt>
      <trkpt lat="49.00172" lon="-0.58289">
        <ele>231</ele>
        <time>2021-05-28T11:57:48+02:00</time>
      </trkpt>
      <trkpt lat="49.00194" lon="-0.58286">
        <ele>231</ele>
        <time>2021-05-28T11:57:53+02:00</time>
      </trkpt>
      <trkpt lat="49.00227" lon="-0.58303">
        <ele>229</ele>
        <time>2021-05-28T11:57:58+02:00</time>
      </trkpt>
      <trkpt lat="49.00251" lon="-0.58316">
        <ele>228</ele>
        <time>2021-05-28T11:58:03+02:00</time>
      </trkpt>
      <trkpt lat="49.00271" lon="-0.58313">
        <ele>228</ele>
        <time>2021-05-28T11:58:08+02:00</time>
      </trkpt>
      <trkpt lat="49.00305" lon="-0.583">
        <ele>229</ele>
        <time>2021-05-28T11:58:13+02:00</time>
      </trkpt>
      <trkpt lat="49.00332" lon="-0.58286">
        <ele>229</ele>
        <time>2021-05-28T11:58:18+02:00</time>
      </trkpt>
      <trkpt lat="49.00357" lon="-0.58279">
        <ele>228</ele>
        <time>2021-05-28T11:58:23+02:00</time>
      </trkpt>
      <trkpt lat="49.00393" lon="-0.58276">
        <ele>227</ele>
        <time>2021-05-28T11:58:28+02:00</time>
      </trkpt>
      <trkpt lat="49.00444" lon="-0.58276">
        <ele>228</ele>
        <time>2021-05-28T11:58:33+02:00</time>
      </trkpt>
      <trkpt lat="49.00495" lon="-0.58276">
        <ele>229</ele>
        <time>2021-05-28T11:58:38+02:00</time>
      </trkpt>
      <trkpt lat="49.00541" lon="-0.58273">
        <ele>229</ele>
        <time>2021-05-28T11:58:43+02:00</time>
      </trkpt>
      <trkpt lat="49.00592" lon="-0.58269">
        <ele>229</ele>
        <time>2021-05-28T11:58:48+02:00</time>
      </trkpt>
      <trkpt lat="49.00627" lon="-0.58271">
        <ele>230</ele>
        <time>2021-05-28T11:58:53+02:00</time>
      </trkpt>
      <trkpt lat="49.00661" lon="-0.58269">
        <ele>230</ele>
        <time>2021-05-28T11:58:58+02:00</time>
      </trkpt>
      <trkpt lat="49.00696" lon="-0.58268">
        <ele>230</ele>
        <time>2021-05-28T11:59:03+02:00</time>
      </trkpt>
      <trkpt lat="49.00728" lon="-0.58269">
        <ele>229</ele>
        <time>2021-05-28T11:59:08+02:00</time>
      </trkpt>
      <trkpt lat="49.00763" lon="-0.58267">
        <ele>229</ele>
        <time>2021-05-28T11:59:13+02:00</time>
      </trkpt>
      <trkpt lat="49.00821" lon="-0.58264">
        <ele>228</ele>
        <time>2021-05-28T11:59:18+02:00</time>
      </trkpt>
      <trkpt lat="49.00867" lon="-0.58263">
        <ele>227</ele>
        <time>2021-05-28T11:59:23+02:00</time>
      </trkpt>
      <trkpt lat="49.00906" lon="-0.58266">
        <ele>225</ele>
        <time>2021-05-28T11:59:28+02:00</time>
      </trkpt>
      <trkpt lat="49.00929" lon="-0.58266">
        <ele>224</ele>
        <time>2021-05-28T11:59:33+02:00</time>
      </trkpt>
      <trkpt lat="49.0094" lon="-0.58261">
        <ele>224</ele>
        <time>2021-05-28T11:59:38+02:00</time>
      </trkpt>
      <trkpt lat="49.00969" lon="-0.58282">
        <ele>223</ele>
        <time>2021-05-28T11:59:43+02:00</time>
      </trkpt>
      <trkpt lat="49.01005" lon="-0.5831">
        <ele>221</ele>
        <time>2021-05-28T11:59:48+02:00</time>
      </trkpt>
      <trkpt lat="49.01027" lon="-0.58327">
        <ele>220</ele>
        <time>2021-05-28T11:59:53+02:00</time>
      </trkpt>
      <trkpt lat="49.01051" lon="-0.58346">
        <ele>218</ele>
        <time>2021-05-28T11:59:58+02:00</time>
      </trkpt>
      <trkpt lat="49.01068" lon="-0.58359">
        <ele>217</ele>
        <time>2021-05-28T12:00:03+02:00</time>
      </trkpt>
      <trkpt lat="49.01083" lon="-0.58374">
        <ele>216</ele>
        <time>2021-05-28T12:00:08+02:00</time>
      </trkpt>
      <trkpt lat="49.01091" lon="-0.5837">
        <ele>216</ele>
        <time>2021-05-28T12:00:13+02:00</time>
      </trkpt>
      <trkpt lat="49.01098" lon="-0.58385">
        <ele>215</ele>
        <time>2021-05-28T12:00:18+02:00</time>
      </trkpt>
      <trkpt lat="49.01092" lon="-0.58396">
        <ele>216</ele>
        <time>2021-05-28T12:00:23+02:00</time>
      </trkpt>
      <trkpt lat="49.01071" lon="-0.58421">
        <ele>217</ele>
        <time>2021-05-28T12:00:28+02:00</time>
      </trkpt>
      <trkpt lat="49.01056" lon="-0.58441">
        <ele>217</ele>
        <time>2021-05-28T12:00:33+02:00</time>
      </trkpt>
      <trkpt lat="49.01035" lon="-0.58462">
        <ele>218</ele>
        <time>2021-05-28T12:00:38+02:00</time>
      </trkpt>
      <trkpt lat="49.01021" lon="-0.58472">
        <ele>219</ele>
        <time>2021-05-28T12:00:43+02:00</time>
      </trkpt>
      <trkpt lat="49.01025" lon="-0.58493">
        <ele>218</ele>
        <time>2021-05-28T12:00:48+02:00</time>
      </trkpt>
    </trkseg>
  </trk>
</gpx>